Time;durP1;ratioP1;P1;durP2;ratioP2;P2;SDS_P1;SDS_P2;PMS_P1;PMS_P2;Temp;Humidity;BMP_temperature;BMP_pressure;BME280_temperature;BME280_humidity;BME280_pressure;Samples;Min_cycle;Max_cycle;Signal;HPM_P1;HPM_P2
2023/06/07 00:02:23;;;;;;;6.00;2.10;;;11.80;99.90;;;;;;5056994;28;20446;-48
2023/06/07 00:04:49;;;;;;;7.00;2.07;;;11.70;99.90;;;;;;5056790;28;20040;-48
2023/06/07 00:07:15;;;;;;;4.60;1.73;;;11.70;99.90;;;;;;5056708;28;20102;-48
2023/06/07 00:09:41;;;;;;;4.88;1.73;;;11.50;99.90;;;;;;5055564;28;20060;-48
2023/06/07 00:12:07;;;;;;;6.00;1.63;;;11.50;99.90;;;;;;5056644;28;20045;-48
2023/06/07 00:14:33;;;;;;;4.15;1.30;;;11.40;99.90;;;;;;5056443;28;20755;-49
2023/06/07 00:16:59;;;;;;;5.53;1.93;;;11.40;99.90;;;;;;5056297;28;20091;-48
2023/06/07 00:19:25;;;;;;;4.10;1.60;;;11.40;99.90;;;;;;5056571;28;20045;-49
2023/06/07 00:21:54;;;;;;;4.57;1.40;;;11.40;99.90;;;;;;5056431;28;20044;-49
2023/06/07 00:24:20;;;;;;;4.30;1.50;;;11.50;99.90;;;;;;5056700;28;20392;-48
2023/06/07 00:26:46;;;;;;;5.90;1.63;;;11.40;99.90;;;;;;5056281;28;20107;-47
2023/06/07 00:29:13;;;;;;;7.15;2.00;;;11.50;99.90;;;;;;5055657;28;20053;-47
2023/06/07 00:31:39;;;;;;;8.23;1.80;;;11.50;99.90;;;;;;5055301;28;20388;-47
2023/06/07 00:34:05;;;;;;;5.22;1.75;;;11.50;99.90;;;;;;5056069;28;20041;-47
2023/06/07 00:36:33;;;;;;;5.85;1.95;;;11.50;99.90;;;;;;5056082;28;20076;-47
2023/06/07 00:38:59;;;;;;;5.80;1.75;;;11.50;99.90;;;;;;5056021;28;20053;-47
2023/06/07 00:41:25;;;;;;;5.93;2.30;;;11.40;99.90;;;;;;5055969;28;20511;-48
2023/06/07 00:43:50;;;;;;;7.77;2.13;;;11.40;99.90;;;;;;5055750;28;20280;-47
2023/06/07 00:46:19;;;;;;;6.13;1.73;;;11.40;99.90;;;;;;5056163;28;20041;-48
2023/06/07 00:48:45;;;;;;;4.00;1.60;;;11.40;99.90;;;;;;5055865;28;20366;-47
2023/06/07 00:51:11;;;;;;;7.93;2.50;;;11.40;99.90;;;;;;5055765;28;20492;-47
2023/06/07 00:53:37;;;;;;;6.40;1.63;;;11.40;99.90;;;;;;5055775;28;20094;-46
2023/06/07 00:56:05;;;;;;;5.95;1.65;;;11.40;99.90;;;;;;5055681;28;20065;-47
2023/06/07 00:58:35;;;;;;;5.38;1.55;;;11.40;99.90;;;;;;5054564;28;20049;-47
2023/06/07 01:01:01;;;;;;;4.43;1.30;;;11.40;99.90;;;;;;5055606;28;20045;-47
2023/06/07 01:03:30;;;;;;;4.00;1.33;;;11.40;99.90;;;;;;5055617;28;20480;-48
2023/06/07 01:05:58;;;;;;;8.48;1.08;;;11.40;99.90;;;;;;5055574;28;20048;-48
2023/06/07 01:08:25;;;;;;;4.57;1.55;;;11.40;99.90;;;;;;5055377;28;20044;-47
2023/06/07 01:10:52;;;;;;;5.10;1.63;;;11.30;99.90;;;;;;5055511;28;20061;-47
2023/06/07 01:13:18;;;;;;;5.47;1.67;;;11.30;99.90;;;;;;5054382;28;20041;-47
2023/06/07 01:15:44;;;;;;;3.30;1.10;;;11.30;99.90;;;;;;5054446;28;20052;-48
2023/06/07 01:18:10;;;;;;;;;;;11.20;99.90;;;;;;5055701;28;20060;-48
2023/06/07 01:20:38;;;;;;;5.78;1.45;;;11.20;99.90;;;;;;5055216;28;19924;-47
2023/06/07 01:23:07;;;;;;;6.05;1.92;;;11.10;99.90;;;;;;5055246;28;20048;-47
2023/06/07 01:25:33;;;;;;;5.10;1.38;;;11.10;99.90;;;;;;5054951;28;20507;-46
2023/06/07 01:28:00;;;;;;;3.97;1.27;;;11.10;99.90;;;;;;5055087;28;20064;-47
2023/06/07 01:30:31;;;;;;;5.40;1.50;;;11.10;99.90;;;;;;5055107;28;20049;-47
2023/06/07 01:32:58;;;;;;;3.30;1.23;;;11.00;99.90;;;;;;5055036;28;20056;-47
2023/06/07 01:35:24;;;;;;;3.58;1.33;;;11.10;99.90;;;;;;5055026;28;20037;-47
2023/06/07 01:37:51;;;;;;;;;;;11.00;99.90;;;;;;5055156;28;20565;-48
2023/06/07 01:40:19;;;;;;;6.22;1.50;;;11.10;99.90;;;;;;5054070;28;19931;-48
2023/06/07 01:42:45;;;;;;;4.47;1.55;;;11.10;99.90;;;;;;5054970;28;20044;-47
2023/06/07 01:45:11;;;;;;;;;;;11.10;99.90;;;;;;5055337;28;20045;-47
2023/06/07 01:47:37;;;;;;;4.38;1.40;;;11.10;99.90;;;;;;5054809;28;19925;-48
2023/06/07 01:50:05;;;;;;;5.13;1.27;;;11.10;99.90;;;;;;5054574;28;20041;-47
2023/06/07 01:52:30;;;;;;;6.90;1.67;;;11.10;99.90;;;;;;5054530;28;20084;-47
2023/06/07 01:54:56;;;;;;;5.83;2.03;;;11.20;99.90;;;;;;5054370;28;20460;-48
2023/06/07 01:57:54;;;;;;;4.85;1.45;;;11.20;99.90;;;;;;5054628;28;20477;-47
2023/06/07 02:00:38;;;;;;;3.63;1.15;;;11.20;99.90;;;;;;5051263;28;20053;-47
2023/06/07 02:03:16;;;;;;;4.90;1.23;;;11.20;99.90;;;;;;5054411;28;20481;-47
2023/06/07 02:05:48;;;;;;;4.75;1.50;;;11.20;99.90;;;;;;5054858;28;20056;-47
2023/06/07 02:08:36;;;;;;;5.22;1.33;;;11.20;99.90;;;;;;5054391;28;20041;-47
2023/06/07 02:11:03;;;;;;;3.75;1.40;;;11.30;99.90;;;;;;5054102;28;20045;-47
2023/06/07 02:13:34;;;;;;;3.83;1.30;;;11.30;99.90;;;;;;5053078;28;20040;-47
2023/06/07 02:16:04;;;;;;;5.43;1.20;;;11.40;99.90;;;;;;5053345;28;20040;-47
2023/06/07 02:18:30;;;;;;;7.45;1.50;;;11.40;99.90;;;;;;5054249;28;20097;-47
2023/06/07 02:20:56;;;;;;;7.38;1.75;;;11.40;99.90;;;;;;5054219;28;20052;-47
2023/06/07 02:23:22;;;;;;;5.40;1.30;;;11.50;99.90;;;;;;5054167;28;20094;-47
2023/06/07 02:25:48;;;;;;;4.82;1.48;;;11.50;99.90;;;;;;5053983;28;20049;-47
2023/06/07 02:28:14;;;;;;;2.58;0.90;;;11.50;99.90;;;;;;5052624;28;20044;-47
2023/06/07 02:30:39;;;;;;;6.23;1.90;;;11.50;99.90;;;;;;5054017;28;20055;-47
2023/06/07 02:33:06;;;;;;;6.37;1.73;;;11.60;99.90;;;;;;5053971;28;20132;-47
2023/06/07 02:35:32;;;;;;;4.95;1.35;;;11.60;99.90;;;;;;5053960;28;20052;-47
2023/06/07 02:37:58;;;;;;;6.17;1.33;;;11.60;99.90;;;;;;5053779;28;20541;-48
2023/06/07 02:40:23;;;;;;;5.57;1.27;;;11.60;99.90;;;;;;5052699;28;20045;-47
2023/06/07 02:42:49;;;;;;;4.50;1.10;;;11.60;99.90;;;;;;5053764;28;20127;-48
2023/06/07 02:45:15;;;;;;;4.17;1.07;;;11.60;99.90;;;;;;5052613;28;20091;-48
2023/06/07 02:47:44;;;;;;;6.78;1.77;;;11.60;99.90;;;;;;5053744;28;20056;-48
2023/06/07 02:50:10;;;;;;;6.60;1.75;;;11.50;99.90;;;;;;5053672;28;20045;-47
2023/06/07 02:52:36;;;;;;;5.75;1.33;;;11.60;99.90;;;;;;5052742;28;20452;-47
2023/06/07 02:55:02;;;;;;;5.07;1.33;;;11.50;99.90;;;;;;5053589;28;20149;-47
2023/06/07 02:57:28;;;;;;;4.35;1.02;;;11.60;99.90;;;;;;5052539;28;20091;-48
2023/06/07 02:59:54;;;;;;;7.75;1.20;;;11.60;99.90;;;;;;5053678;28;20123;-49
2023/06/07 03:02:20;;;;;;;5.87;1.73;;;11.60;99.90;;;;;;5054035;28;20044;-48
2023/06/07 03:04:46;;;;;;;7.05;1.40;;;11.60;99.90;;;;;;5053571;28;20049;-48
2023/06/07 03:07:12;;;;;;;5.72;1.38;;;11.60;99.90;;;;;;5053566;28;20063;-50
2023/06/07 03:09:41;;;;;;;4.28;1.25;;;11.60;99.90;;;;;;5053633;28;20045;-48
2023/06/07 03:12:07;;;;;;;4.25;1.35;;;11.60;99.90;;;;;;5053257;28;20508;-50
2023/06/07 03:14:33;;;;;;;5.07;1.40;;;11.70;99.90;;;;;;5053476;28;20051;-48
2023/06/07 03:17:02;;;;;;;5.55;1.88;;;11.70;99.90;;;;;;5053505;28;20092;-49
2023/06/07 03:19:28;;;;;;;4.88;2.08;;;11.70;99.90;;;;;;5053265;28;20056;-47
2023/06/07 03:21:54;;;;;;;4.90;1.73;;;11.70;99.90;;;;;;5053425;28;20049;-47
2023/06/07 03:24:19;;;;;;;4.00;1.58;;;11.80;99.90;;;;;;5053184;28;20037;-47
2023/06/07 03:26:45;;;;;;;4.03;1.40;;;11.70;99.90;;;;;;5053147;28;20111;-47
2023/06/07 03:29:11;;;;;;;6.97;1.60;;;11.80;99.90;;;;;;5053419;28;20088;-47
2023/06/07 03:31:37;;;;;;;6.70;1.90;;;11.70;99.90;;;;;;5052082;28;20053;-47
2023/06/07 03:34:03;;;;;;;4.40;1.38;;;11.70;99.90;;;;;;5053187;28;20303;-48
2023/06/07 03:36:29;;;;;;;4.90;1.67;;;11.80;99.90;;;;;;5053399;28;20045;-47
2023/06/07 03:38:55;;;;;;;5.47;1.37;;;11.80;99.90;;;;;;5053167;28;20060;-47
2023/06/07 03:41:21;;;;;;;5.13;1.63;;;11.80;99.90;;;;;;5052989;28;20496;-47
2023/06/07 03:43:47;;;;;;;6.37;1.33;;;11.80;99.90;;;;;;5053043;28;20037;-47
2023/06/07 03:46:12;;;;;;;6.17;1.67;;;11.80;99.90;;;;;;5053325;28;20049;-47
2023/06/07 03:48:38;;;;;;;4.17;1.77;;;11.90;99.90;;;;;;5052215;28;20377;-47
2023/06/07 03:51:05;;;;;;;7.07;1.30;;;11.80;99.90;;;;;;5053210;28;20211;-47
2023/06/07 03:53:31;;;;;;;6.25;1.27;;;11.90;99.90;;;;;;5051882;28;20128;-47
2023/06/07 03:55:57;;;;;;;5.18;1.30;;;11.90;99.90;;;;;;5052887;28;20136;-47
2023/06/07 03:58:24;;;;;;;5.90;1.33;;;11.90;99.90;;;;;;5053073;28;20467;-46
2023/06/07 04:00:51;;;;;;;6.18;1.38;;;11.90;99.90;;;;;;5052883;28;20373;-46
2023/06/07 04:03:24;;;;;;;5.97;1.33;;;12.00;99.90;;;;;;5053202;28;20110;-47
2023/06/07 04:05:50;;;;;;;6.90;1.60;;;12.00;99.90;;;;;;5056824;28;20136;-47
2023/06/07 04:08:16;;;;;;;5.18;1.30;;;12.00;99.90;;;;;;5056631;28;20099;-47
2023/06/07 04:10:42;;;;;;;5.65;1.20;;;12.00;99.90;;;;;;5056664;28;20503;-47
2023/06/07 04:13:08;;;;;;;6.80;1.30;;;12.10;99.90;;;;;;5056857;28;20040;-48
2023/06/07 04:15:34;;;;;;;5.03;1.52;;;12.10;99.90;;;;;;5056652;28;20376;-47
2023/06/07 04:17:59;;;;;;;4.40;1.47;;;12.10;99.90;;;;;;5056472;28;20575;-46
2023/06/07 04:20:27;;;;;;;3.70;1.40;;;12.10;99.90;;;;;;5056528;28;20280;-46
2023/06/07 04:22:52;;;;;;;4.10;1.40;;;12.10;99.90;;;;;;5056346;28;20107;-47
2023/06/07 04:25:21;;;;;;;4.23;1.43;;;12.10;99.90;;;;;;5055186;28;20036;-49
2023/06/07 04:27:48;;;;;;;4.05;1.10;;;12.20;99.90;;;;;;5056179;28;20487;-48
2023/06/07 04:30:15;;;;;;;;;;;12.20;99.90;;;;;;5056947;28;20097;-46
2023/06/07 04:32:43;;;;;;;4.50;1.10;;;12.20;99.90;;;;;;5055256;28;19928;-47
2023/06/07 04:35:09;;;;;;;3.88;1.30;;;12.20;99.90;;;;;;5056199;28;20175;-46
2023/06/07 04:37:34;;;;;;;6.55;1.27;;;12.20;99.90;;;;;;5054993;28;20506;-47
2023/06/07 04:40:00;;;;;;;3.30;1.08;;;12.20;99.90;;;;;;5056392;28;20045;-47
2023/06/07 04:42:27;;;;;;;4.67;1.20;;;12.20;99.90;;;;;;5056467;28;20048;-47
2023/06/07 04:44:53;;;;;;;;;;;12.20;99.90;;;;;;5056366;28;20510;-47
2023/06/07 04:47:19;;;;;;;3.45;1.15;;;12.20;99.90;;;;;;5055900;28;19920;-47
2023/06/07 04:49:46;;;;;;;3.13;1.17;;;12.30;99.90;;;;;;5055861;28;20103;-47
2023/06/07 04:52:19;;;;;;;3.10;1.40;;;12.30;99.90;;;;;;5055599;28;20082;-47
2023/06/07 04:54:46;;;;;;;3.08;1.25;;;12.30;99.90;;;;;;5055785;28;20048;-47
2023/06/07 04:57:13;;;;;;;5.15;1.42;;;12.30;99.90;;;;;;5055899;28;20407;-47
2023/06/07 04:59:44;;;;;;;;;;;12.30;99.90;;;;;;5056066;28;20041;-46
2023/06/07 05:02:10;;;;;;;5.57;1.52;;;12.30;99.90;;;;;;5055667;28;19982;-47
2023/06/07 05:04:38;;;;;;;4.05;1.27;;;12.30;99.90;;;;;;5055514;28;20538;-47
2023/06/07 05:07:05;;;;;;;2.67;0.90;;;12.40;99.90;;;;;;5055590;28;20124;-50
2023/06/07 05:09:31;;;;;;;4.38;1.40;;;12.30;99.90;;;;;;5054284;28;20045;-47
2023/06/07 05:11:57;;;;;;;4.83;1.30;;;12.40;99.90;;;;;;5055562;28;20161;-47
2023/06/07 05:14:22;;;;;;;3.30;0.93;;;12.40;99.90;;;;;;5054169;28;20428;-47
2023/06/07 05:16:48;;;;;;;3.93;1.23;;;12.40;99.90;;;;;;5054316;28;20047;-46
2023/06/07 05:19:16;;;;;;;5.15;1.38;;;12.40;99.90;;;;;;5055098;28;20091;-46
2023/06/07 05:21:42;;;;;;;3.00;1.20;;;12.40;99.90;;;;;;5055831;28;20053;-49
2023/06/07 05:24:07;;;;;;;4.35;1.33;;;12.40;99.90;;;;;;5055181;28;20431;-50
2023/06/07 05:26:33;;;;;;;2.92;1.20;;;12.50;99.90;;;;;;5054329;28;20052;-48
2023/06/07 05:28:59;;;;;;;5.33;1.50;;;12.50;99.90;;;;;;5054685;28;20053;-50
2023/06/07 05:31:26;;;;;;;7.80;1.43;;;12.50;99.90;;;;;;5037209;28;20099;-47
2023/06/07 05:33:52;;;;;;;6.40;1.73;;;12.50;99.90;;;;;;5054801;28;20045;-48
2023/06/07 05:36:18;;;;;;;;;;;12.50;99.90;;;;;;5055501;28;20049;-47
2023/06/07 05:38:44;;;;;;;4.05;1.50;;;12.50;99.90;;;;;;5054198;28;20292;-46
2023/06/07 05:41:09;;;;;;;5.80;1.20;;;12.60;99.90;;;;;;5054945;28;20051;-46
2023/06/07 05:43:36;;;;;;;6.57;2.40;;;12.60;99.90;;;;;;5054882;28;20040;-47
2023/06/07 05:46:02;;;;;;;5.38;1.75;;;12.70;99.90;;;;;;5053813;28;20291;-47
2023/06/07 05:48:27;;;;;;;5.47;1.20;;;12.70;99.90;;;;;;5054520;28;20511;-47
2023/06/07 05:50:54;;;;;;;3.20;1.03;;;12.70;99.90;;;;;;5054785;28;20044;-47
2023/06/07 05:53:20;;;;;;;;;;;12.70;99.90;;;;;;5054190;28;20049;-47
2023/06/07 05:55:47;;;;;;;4.28;1.38;;;12.70;99.90;;;;;;5054692;28;19920;-47
2023/06/07 05:58:14;;;;;;;5.30;1.48;;;12.70;99.90;;;;;;5054596;28;20049;-47
2023/06/07 06:00:40;;;;;;;6.18;1.35;;;12.70;99.90;;;;;;5054736;28;20048;-47
2023/06/07 06:03:06;;;;;;;;;;;12.70;99.90;;;;;;5053976;28;20122;-46
2023/06/07 06:05:32;;;;;;;5.20;1.30;;;12.80;99.90;;;;;;5054486;28;19924;-47
2023/06/07 06:07:58;;;;;;;3.63;1.53;;;12.80;99.90;;;;;;5054404;28;20080;-46
2023/06/07 06:10:25;;;;;;;3.80;1.30;;;12.80;99.90;;;;;;5054410;28;20291;-48
2023/06/07 06:12:50;;;;;;;3.58;1.38;;;12.90;99.90;;;;;;5054347;28;20358;-48
2023/06/07 06:15:16;;;;;;;4.23;1.43;;;13.00;99.90;;;;;;5053094;28;20187;-48
2023/06/07 06:17:42;;;;;;;4.47;1.60;;;13.00;99.90;;;;;;5054106;28;20288;-46
2023/06/07 06:20:08;;;;;;;4.73;1.47;;;13.00;99.90;;;;;;5054197;28;20292;-48
2023/06/07 06:22:34;;;;;;;6.18;1.58;;;13.10;99.90;;;;;;5054403;28;20051;-48
2023/06/07 06:25:00;;;;;;;4.15;1.30;;;13.10;99.90;;;;;;5054136;28;20041;-47
2023/06/07 06:27:25;;;;;;;6.37;1.60;;;13.20;99.90;;;;;;5053521;28;20505;-50
2023/06/07 06:29:51;;;;;;;2.37;0.93;;;13.20;99.90;;;;;;5036534;28;20055;-47
2023/06/07 06:32:17;;;;;;;5.60;1.47;;;13.20;99.90;;;;;;5053801;28;20095;-47
2023/06/07 06:34:44;;;;;;;6.27;1.63;;;13.20;99.90;;;;;;5053909;28;20128;-48
2023/06/07 06:37:10;;;;;;;5.95;1.50;;;13.20;99.90;;;;;;5053893;28;20048;-50
2023/06/07 06:39:35;;;;;;;4.68;1.38;;;13.20;99.90;;;;;;5053948;28;20048;-48
2023/06/07 06:42:01;;;;;;;4.23;1.23;;;13.30;99.90;;;;;;5052947;28;20049;-48
2023/06/07 06:44:28;;;;;;;5.05;1.27;;;13.30;99.90;;;;;;5053737;28;20052;-48
2023/06/07 06:46:54;;;;;;;3.92;1.23;;;13.30;99.90;;;;;;5053702;28;20045;-48
2023/06/07 06:49:20;;;;;;;3.30;1.20;;;13.30;99.90;;;;;;5053792;28;20076;-47
2023/06/07 06:51:46;;;;;;;4.38;1.35;;;13.40;99.90;;;;;;5054074;28;20084;-47
2023/06/07 06:54:12;;;;;;;2.75;1.00;;;13.40;99.90;;;;;;5052605;28;20045;-46
2023/06/07 06:56:38;;;;;;;5.53;1.80;;;13.50;99.90;;;;;;5053664;28;20045;-47
2023/06/07 06:59:03;;;;;;;5.67;2.13;;;13.50;99.90;;;;;;5053697;28;20499;-46
2023/06/07 07:01:46;;;;;;;4.23;1.40;;;13.50;99.90;;;;;;5053533;28;20044;-46
2023/06/07 07:04:13;;;;;;;2.97;1.20;;;13.50;99.90;;;;;;5053860;28;20678;-46
2023/06/07 07:06:40;;;;;;;4.72;1.40;;;13.60;99.90;;;;;;5053577;28;20048;-47
2023/06/07 07:09:06;;;;;;;2.95;1.10;;;13.60;99.90;;;;;;5053594;28;20052;-48
2023/06/07 07:11:31;;;;;;;5.50;1.37;;;13.70;99.90;;;;;;5053550;28;20041;-49
2023/06/07 07:13:57;;;;;;;6.33;1.40;;;13.70;99.90;;;;;;5053362;28;20049;-46
2023/06/07 07:16:23;;;;;;;3.80;1.47;;;13.70;99.90;;;;;;5053487;28;20276;-47
2023/06/07 07:18:48;;;;;;;5.03;1.57;;;13.80;99.90;;;;;;5052502;28;20040;-46
2023/06/07 07:21:14;;;;;;;6.07;1.80;;;14.00;99.90;;;;;;5052477;28;20048;-47
2023/06/07 07:23:40;;;;;;;5.57;1.45;;;14.20;99.90;;;;;;5053608;28;20085;-48
2023/06/07 07:26:06;;;;;;;3.00;1.00;;;14.60;99.90;;;;;;5052180;28;20045;-48
2023/06/07 07:28:31;;;;;;;4.85;1.63;;;14.90;99.90;;;;;;5053199;28;20136;-48
2023/06/07 07:30:57;;;;;;;3.63;1.07;;;15.00;99.90;;;;;;5052180;28;20505;-48
2023/06/07 07:33:23;;;;;;;4.37;1.30;;;15.00;99.90;;;;;;5053189;28;20055;-47
2023/06/07 07:35:48;;;;;;;5.20;1.33;;;15.10;99.90;;;;;;5053445;28;20048;-47
2023/06/07 07:38:15;;;;;;;3.93;1.33;;;15.00;99.90;;;;;;5053491;28;20084;-47
2023/06/07 07:40:44;;;;;;;5.05;1.13;;;15.00;99.90;;;;;;5057040;28;20088;-46
2023/06/07 07:43:10;;;;;;;5.38;1.42;;;14.90;99.90;;;;;;5055982;28;20110;-53
2023/06/07 07:45:37;;;;;;;4.82;1.52;;;14.90;99.90;;;;;;5057281;28;20393;-47
2023/06/07 07:48:03;;;;;;;;;;;14.80;99.90;;;;;;5057311;28;20573;-50
2023/06/07 07:50:29;;;;;;;4.00;1.23;;;14.80;99.90;;;;;;5056971;28;20011;-48
2023/06/07 07:52:56;;;;;;;6.80;1.65;;;14.80;99.90;;;;;;5057089;28;20079;-47
2023/06/07 07:55:23;;;;;;;4.18;1.40;;;14.80;99.90;;;;;;5057024;28;20045;-48
2023/06/07 07:57:49;;;;;;;5.68;1.33;;;14.90;99.90;;;;;;5056600;28;20131;-51
2023/06/07 08:00:16;;;;;;;4.90;1.48;;;14.90;99.90;;;;;;5055908;28;20060;-47
2023/06/07 08:02:42;;;;;;;2.50;1.02;;;15.00;99.90;;;;;;5056827;28;20068;-47
2023/06/07 08:05:08;;;;;;;4.90;1.17;;;14.90;99.90;;;;;;5056602;28;20493;-47
2023/06/07 08:07:34;;;;;;;2.22;0.85;;;14.90;99.90;;;;;;5056549;28;20059;-47
2023/06/07 08:10:00;;;;;;;4.03;1.40;;;14.90;99.90;;;;;;5056617;28;20107;-47
2023/06/07 08:12:26;;;;;;;4.65;1.50;;;14.90;99.90;;;;;;5056398;28;20427;-46
2023/06/07 08:14:52;;;;;;;4.80;1.27;;;14.90;99.90;;;;;;5056524;28;20081;-48
2023/06/07 08:17:19;;;;;;;4.10;1.35;;;14.90;99.90;;;;;;5056601;28;20041;-48
2023/06/07 08:19:46;;;;;;;6.15;1.55;;;14.90;99.90;;;;;;5056340;28;20374;-48
2023/06/07 08:22:12;;;;;;;4.47;1.35;;;15.00;99.90;;;;;;5056378;28;20051;-47
2023/06/07 08:24:37;;;;;;;7.30;2.75;;;15.00;99.90;;;;;;5056305;28;20041;-47
2023/06/07 08:27:03;;;;;;;4.05;1.27;;;15.00;99.90;;;;;;5056335;28;20139;-46
2023/06/07 08:29:29;;;;;;;4.85;1.42;;;15.00;99.90;;;;;;5054982;28;20443;-48
2023/06/07 08:31:56;;;;;;;4.22;1.30;;;15.00;99.90;;;;;;5055463;28;20049;-47
2023/06/07 08:34:27;;;;;;;3.28;1.30;;;15.10;99.90;;;;;;5056214;28;20491;-48
2023/06/07 08:36:53;;;;;;;3.83;1.63;;;15.10;99.90;;;;;;5056164;28;20060;-47
2023/06/07 08:39:19;;;;;;;4.43;1.42;;;15.10;99.90;;;;;;5055965;28;20132;-47
2023/06/07 08:41:45;;;;;;;5.78;1.50;;;15.00;99.90;;;;;;5056146;28;20081;-55
2023/06/07 08:44:11;;;;;;;7.80;2.45;;;15.10;99.90;;;;;;5056092;28;20045;-47
2023/06/07 08:46:37;;;;;;;5.90;1.10;;;15.00;99.90;;;;;;5056378;28;20045;-48
2023/06/07 08:49:05;;;;;;;4.28;1.25;;;15.10;99.90;;;;;;5055120;28;20315;-48
2023/06/07 08:51:36;;;;;;;3.50;1.20;;;15.00;99.90;;;;;;5055801;28;20045;-48
2023/06/07 08:54:03;;;;;;;5.28;1.33;;;15.10;99.90;;;;;;5038070;28;20499;-47
2023/06/07 08:56:31;;;;;;;4.78;1.30;;;15.10;99.90;;;;;;5054883;28;20131;-49
2023/06/07 08:58:57;;;;;;;4.25;1.55;;;15.10;99.90;;;;;;5055733;28;20472;-47
2023/06/07 09:01:23;;;;;;;5.13;1.40;;;15.20;99.90;;;;;;5055850;28;20053;-47
2023/06/07 09:03:51;;;;;;;5.10;1.52;;;15.20;99.90;;;;;;5055753;28;20037;-47
2023/06/07 09:06:18;;;;;;;4.78;1.30;;;15.20;99.90;;;;;;5055752;28;20126;-46
2023/06/07 09:08:44;;;;;;;4.20;1.65;;;15.20;99.90;;;;;;5054364;28;20053;-47
2023/06/07 09:11:10;;;;;;;4.07;1.40;;;15.20;99.90;;;;;;5055584;28;20502;-49
2023/06/07 09:13:36;;;;;;;5.97;1.48;;;15.20;99.90;;;;;;5054352;28;20135;-48
2023/06/07 09:16:02;;;;;;;;;;;15.20;99.90;;;;;;5055864;28;20049;-47
2023/06/07 09:18:44;;;;;;;4.85;1.60;;;15.20;99.90;;;;;;5055290;28;19927;-46
2023/06/07 09:21:31;;;;;;;4.93;1.88;;;15.30;99.90;;;;;;5055102;28;20084;-57
2023/06/07 09:23:59;;;;;;;5.68;1.70;;;15.30;99.90;;;;;;5055320;28;20048;-50
2023/06/07 09:26:36;;;;;;;8.13;2.20;;;15.40;99.90;;;;;;5055229;28;20045;-51
2023/06/07 09:29:10;;;;;;;4.20;1.50;;;15.40;99.90;;;;;;5054859;28;20139;-51
2023/06/07 09:31:37;;;;;;;4.28;1.77;;;15.40;99.90;;;;;;5054993;28;20127;-49
2023/06/07 09:34:22;;;;;;;4.43;1.42;;;15.40;99.90;;;;;;5054029;28;20049;-49
2023/06/07 09:36:58;;;;;;;5.90;1.70;;;15.40;99.90;;;;;;5055102;28;20055;-47
2023/06/07 09:39:28;;;;;;;7.30;1.65;;;15.40;99.90;;;;;;5055068;28;20392;-50
2023/06/07 09:41:56;;;;;;;6.07;2.10;;;15.40;99.90;;;;;;5054853;28;20047;-49
2023/06/07 09:44:29;;;;;;;6.03;2.03;;;15.40;99.90;;;;;;5054632;28;20392;-46
2023/06/07 09:46:56;;;;;;;6.43;2.00;;;15.50;99.90;;;;;;5054823;28;20083;-51
2023/06/07 09:49:34;;;;;;;5.38;1.75;;;15.50;99.90;;;;;;5054795;28;20060;-47
2023/06/07 09:52:01;;;;;;;5.15;1.98;;;15.50;99.90;;;;;;5053811;28;20052;-51
2023/06/07 09:54:38;;;;;;;5.68;2.28;;;15.60;99.90;;;;;;5054215;28;20508;-51
2023/06/07 09:57:06;;;;;;;4.97;1.92;;;15.70;99.90;;;;;;5054594;28;20124;-48
2023/06/07 09:59:33;;;;;;;4.80;1.90;;;15.70;99.90;;;;;;5054553;28;20053;-51
2023/06/07 10:01:58;;;;;;;6.07;2.17;;;15.70;99.90;;;;;;5052824;28;20041;-50
2023/06/07 10:04:24;;;;;;;5.00;1.85;;;15.70;99.90;;;;;;5054322;28;20401;-47
2023/06/07 10:06:54;;;;;;;6.15;1.88;;;15.70;99.90;;;;;;5054318;28;20052;-49
2023/06/07 10:09:22;;;;;;;4.53;1.88;;;15.70;99.90;;;;;;5054170;28;20049;-48
2023/06/07 10:11:53;;;;;;;6.00;1.77;;;15.70;99.90;;;;;;5053617;28;20132;-48
2023/06/07 10:14:23;;;;;;;5.97;1.88;;;15.80;99.90;;;;;;5053259;28;20178;-51
2023/06/07 10:17:00;;;;;;;5.50;1.83;;;15.90;99.90;;;;;;5054578;28;20049;-48
2023/06/07 10:19:46;;;;;;;6.40;1.70;;;16.00;99.90;;;;;;5054120;28;20124;-49
2023/06/07 10:22:16;;;;;;;5.05;1.98;;;16.10;99.90;;;;;;5054364;28;20122;-48
2023/06/07 10:25:17;;;;;;;7.20;1.80;;;16.10;99.90;;;;;;5054153;28;20049;-49
2023/06/07 10:28:07;;;;;;;6.10;2.17;;;16.30;99.90;;;;;;5051816;28;20099;-48
2023/06/07 10:30:36;;;;;;;4.88;2.15;;;16.40;99.90;;;;;;5054133;28;20049;-47
2023/06/07 10:33:06;;;;;;;8.07;2.45;;;16.60;99.90;;;;;;5053983;28;20049;-47
2023/06/07 10:35:32;;;;;;;7.38;2.40;;;16.70;99.90;;;;;;5054008;28;20056;-47
2023/06/07 10:37:58;;;;;;;5.18;1.73;;;16.80;99.90;;;;;;5053976;28;20452;-55
2023/06/07 10:40:25;;;;;;;5.47;1.70;;;16.90;99.90;;;;;;5052802;28;20114;-48
2023/06/07 10:42:52;;;;;;;3.80;1.50;;;17.00;99.90;;;;;;5053807;28;20049;-50
2023/06/07 10:45:19;;;;;;;6.22;1.77;;;17.00;99.90;;;;;;5053832;28;20484;-47
2023/06/07 10:47:48;;;;;;;6.72;1.73;;;17.10;99.90;;;;;;5053839;28;20048;-46
2023/06/07 10:50:31;;;;;;;5.05;1.73;;;17.20;99.90;;;;;;5053814;28;20045;-50
2023/06/07 10:53:01;;;;;;;7.43;1.75;;;17.40;99.90;;;;;;5053423;28;20049;-47
2023/06/07 10:55:31;;;;;;;5.80;1.95;;;17.50;99.90;;;;;;5053723;28;20041;-55
2023/06/07 10:58:00;;;;;;;6.93;1.90;;;17.60;99.90;;;;;;5053700;28;20139;-49
2023/06/07 11:00:29;;;;;;;4.75;1.70;;;17.70;99.90;;;;;;5053500;28;20562;-50
2023/06/07 11:03:04;;;;;;;8.05;2.10;;;17.80;99.90;;;;;;5053553;28;20455;-49
2023/06/07 11:05:52;;;;;;;4.95;1.85;;;17.90;99.90;;;;;;5053428;28;20053;-47
2023/06/07 11:08:21;;;;;;;;;;;18.00;99.90;;;;;;5053909;28;20138;-47
2023/06/07 11:10:47;;;;;;;5.18;1.70;;;18.10;99.90;;;;;;5053498;28;20376;-48
2023/06/07 11:13:13;;;;;;;5.53;2.38;;;18.30;99.90;;;;;;5052309;28;20057;-48
2023/06/07 11:15:39;;;;;;;4.80;1.92;;;18.40;99.90;;;;;;5052317;28;20041;-49
2023/06/07 11:18:07;;;;;;;8.10;2.28;;;18.50;99.90;;;;;;5053329;28;20175;-47
2023/06/07 11:20:40;;;;;;;3.63;1.45;;;18.60;99.90;;;;;;5052448;28;20056;-54
2023/06/07 11:23:22;;;;;;;6.60;2.03;;;18.60;99.90;;;;;;5053407;28;20051;-55
2023/06/07 11:25:48;;;;;;;7.10;1.70;;;18.60;99.90;;;;;;5053273;28;20053;-47
2023/06/07 11:28:16;;;;;;;4.97;1.80;;;18.60;99.90;;;;;;5053332;28;20061;-49
2023/06/07 11:30:45;;;;;;;6.18;1.77;;;18.60;99.90;;;;;;5053166;28;20134;-48
2023/06/07 11:33:18;;;;;;;4.72;1.73;;;18.70;99.90;;;;;;5053729;28;20049;-53
2023/06/07 11:35:44;;;;;;;5.72;1.40;;;18.70;99.90;;;;;;5053210;28;20045;-50
2023/06/07 11:38:10;;;;;;;4.18;1.52;;;18.70;99.90;;;;;;5052175;28;20051;-53
2023/06/07 11:40:36;;;;;;;5.30;1.65;;;18.80;99.90;;;;;;5053141;28;20488;-48
2023/06/07 11:43:02;;;;;;;;;;;18.80;99.90;;;;;;5052546;28;20041;-49
2023/06/07 11:45:28;;;;;;;5.13;1.58;;;18.90;99.90;;;;;;5053540;28;19967;-52
2023/06/07 11:48:00;;;;;;;5.68;1.70;;;19.00;99.90;;;;;;5052916;28;20511;-52
2023/06/07 11:50:25;;;;;;;5.63;1.85;;;19.10;99.90;;;;;;5053073;28;20048;-48
2023/06/07 11:52:55;;;;;;;4.82;1.77;;;19.10;99.90;;;;;;5053010;28;20095;-50
2023/06/07 11:55:21;;;;;;;5.90;1.35;;;19.20;99.90;;;;;;5052900;28;20045;-53
2023/06/07 11:57:51;;;;;;;7.03;1.73;;;19.30;99.90;;;;;;5051671;28;20442;-49
2023/06/07 12:00:23;;;;;;;4.78;1.58;;;19.30;99.90;;;;;;5053036;28;20053;-52
2023/06/07 12:02:50;;;;;;;4.78;1.70;;;19.50;99.90;;;;;;5053066;28;20056;-48
2023/06/07 12:05:17;;;;;;;4.93;1.75;;;19.60;99.90;;;;;;5053101;28;20525;-53
2023/06/07 12:07:43;;;;;;;6.93;1.77;;;19.60;99.90;;;;;;5051954;28;20045;-49
2023/06/07 12:10:10;;;;;;;5.38;1.77;;;19.60;99.90;;;;;;5052746;28;20080;-52
2023/06/07 12:12:37;;;;;;;7.00;2.00;;;19.60;99.90;;;;;;5051751;28;20138;-53
2023/06/07 12:15:03;;;;;;;;;;;19.50;99.90;;;;;;5052039;28;20397;-54
2023/06/07 12:17:35;;;;;;;5.32;1.48;;;19.60;99.90;;;;;;5051934;28;20340;-55
2023/06/07 12:20:12;;;;;;;5.47;1.50;;;19.50;99.90;;;;;;5052897;28;20522;-53
2023/06/07 12:22:38;;;;;;;4.05;1.55;;;19.70;99.90;;;;;;5052660;28;20056;-53
2023/06/07 12:25:10;;;;;;;3.67;1.58;;;19.70;99.90;;;;;;5053238;28;20057;-54
2023/06/07 12:27:38;;;;;;;5.03;1.75;;;19.80;99.90;;;;;;5038824;28;20059;-54
2023/06/07 12:30:08;;;;;;;6.88;1.67;;;19.90;99.90;;;;;;5056224;28;20053;-54
2023/06/07 12:32:33;;;;;;;4.65;1.60;;;19.80;99.90;;;;;;5056112;28;20427;-54
2023/06/07 12:35:01;;;;;;;5.53;1.67;;;19.90;99.90;;;;;;5056019;28;20044;-54
2023/06/07 12:37:27;;;;;;;6.35;1.70;;;19.90;99.90;;;;;;5056188;28;20472;-53
2023/06/07 12:39:53;;;;;;;5.22;2.00;;;20.00;99.90;;;;;;5056259;28;20045;-54
2023/06/07 12:42:19;;;;;;;6.82;1.88;;;20.00;99.90;;;;;;5056232;28;20045;-53
2023/06/07 12:44:45;;;;;;;3.65;1.65;;;20.00;99.90;;;;;;5056193;28;20374;-54
2023/06/07 12:47:10;;;;;;;4.95;1.63;;;19.90;99.90;;;;;;5055116;28;20361;-54
2023/06/07 12:49:36;;;;;;;3.58;1.58;;;19.90;99.90;;;;;;5055850;28;20056;-53
2023/06/07 12:52:02;;;;;;;6.53;1.60;;;19.80;99.90;;;;;;5055675;28;20088;-55
2023/06/07 12:54:28;;;;;;;;;;;19.80;99.90;;;;;;5056300;28;20052;-54